Terminal Aerodrome Forecast
Issued by NWS Buffalo, NY

Home | Current Version | Previous Version | Text Only | Print | Product List | Glossary On
Versions: 1 2 3 4 5 6 7 8 9 10 11 12 13 14 15 16 17 18 19 20 21 22 23 24 25
000
FTUS41 KBUF 292159 AAB
TAFROC
TAF AMD
KROC 292159Z 2922/3018 24011KT 6SM -TSRA SCT040CB BKN100
     FM292210 25006KT P6SM VCTS SCT050CB BKN120
     FM300100 17007KT P6SM OVC090
     FM300700 19008KT P6SM BKN070
     FM301100 23011KT P6SM BKN200=

USA.gov is the U.S. government's official web portal to all federal, state and local government web resources and services.